General Santos, Philippines
Current Conditions -  °F | °C
As of 9:00 AM on Thursday 23 Oct 2014 (Local Time) from RPMD Reporting Station
Haze Haze  
Wind Chill: 84°   Ceiling: Unl
Heat Index: 94°   Visibility: 2.6mi
Dew Point: 77°   Wind: 3mph
Humidity: 79%   Direction: 30°NNE
Pressure: 29.85"   Gusts: NA
Location:  6.12°N, 125.18°E
Report Text: RPMD 230100Z 03003KT 4300 HZ FEW016 SCT290 29/25 Q1011 RMK A2985
Loading
Personal Weather Stations






























Interactive Weather Map
Tropical Storm Tracking
New forecast layout! Learn more

10-Day Weather Forecast

Advertisements
Track Severe Weather on mobile